Charlack, Missouri
Current Conditions -  °F | °C
As of 2:51 AM on Monday 20 Oct 2014 (Local Time) from KSTL Reporting Station
Broken Clouds Broken Clouds  
Wind Chill: 57°   Ceiling: 10000
Heat Index: 57°   Visibility: 10mi
Dew Point: 47°   Wind: 7mph
Humidity: 69%   Direction: 230°SW
Pressure: 30"   Gusts: NA
Location:  38.702°N, 90.3628°W
Report Text: KSTL 200751Z 23006KT 10SM BKN100 14/08 A3000 RMK AO2 SLP154 T01390083 $
Loading
Personal Weather Stations






























Interactive Weather Map
Tropical Storm Tracking
New forecast layout! Learn more

10-Day Weather Forecast

Advertisements
Track Severe Weather on mobile